Buckeye Village, Ohio
Current Conditions -  °F | °C
As of 3:52 PM on Thursday 20 Nov 2014 (Local Time) from KMFD Reporting Station
Broken Clouds Broken Clouds  
Wind Chill: 10°   Ceiling: 3800
Heat Index: 24°   Visibility: 10mi
Dew Point: 11°   Wind: 20mph
Humidity: 57%   Direction: 250°WSW
Pressure: 30"   Gusts: 33mph
Location:  41.0654°N, 82.876°W
Report Text: KMFD 202052Z 25017G29KT 10SM BKN038 M04/M12 A3000 RMK AO2 PK WND 24029/2044 SLP177 T10441117 53005
Loading
Personal Weather Stations






























Interactive Weather Map New forecast layout! Learn more

10-Day Weather Forecast

Advertisements
Track Severe Weather on mobile